createdAt,value
2022-09-07T00:02:51.693Z,72
2022-09-07T00:08:32.369Z,70
2022-09-07T00:14:12.653Z,62
2022-09-07T00:19:52.880Z,66
2022-09-07T00:25:32.982Z,66
2022-09-07T00:31:13.690Z,76
2022-09-07T00:36:54.274Z,66
2022-09-07T00:42:34.399Z,64
2022-09-07T00:48:14.851Z,66
2022-09-07T00:53:55.108Z,62
2022-09-07T00:59:35.293Z,72
2022-09-07T01:05:15.329Z,68
2022-09-07T01:10:58.626Z,76
2022-09-07T01:16:38.803Z,72
2022-09-07T01:22:18.979Z,66
2022-09-07T01:27:59.085Z,66
2022-09-07T01:39:19.474Z,62
2022-09-07T01:50:41.037Z,64
2022-09-07T01:56:21.106Z,74
2022-09-07T02:02:01.970Z,64
2022-09-07T02:07:42.552Z,64
2022-09-07T02:13:22.713Z,74
2022-09-07T02:19:06.256Z,74
2022-09-07T02:24:54.981Z,74
2022-09-07T02:30:35.518Z,66
2022-09-07T02:36:17.070Z,70
2022-09-07T02:42:00.098Z,74
2022-09-07T02:47:40.236Z,68
2022-09-07T02:53:23.067Z,64
2022-09-07T02:59:03.865Z,62
2022-09-07T03:04:44.136Z,74
2022-09-07T03:10:27.842Z,60
2022-09-07T03:16:09.378Z,70
2022-09-07T03:21:51.013Z,72
2022-09-07T03:27:31.961Z,62
2022-09-07T03:33:12.504Z,70
2022-09-07T03:44:33.107Z,58
2022-09-07T03:50:13.285Z,68
2022-09-07T03:55:53.347Z,96
2022-09-07T04:01:34.111Z,68
2022-09-07T04:07:14.683Z,62
2022-09-07T04:12:57.848Z,76
2022-09-07T04:18:43.235Z,74
2022-09-07T04:24:24.078Z,64
2022-09-07T04:30:04.451Z,66
2022-09-07T04:35:44.618Z,64
2022-09-07T04:41:24.686Z,70
2022-09-07T04:52:43.046Z,64
2022-09-07T04:58:23.289Z,60
2022-09-07T05:04:04.177Z,76
2022-09-07T05:09:44.422Z,66
2022-09-07T05:15:24.625Z,66
2022-09-07T05:26:45.417Z,72
2022-09-07T05:32:33.509Z,64
2022-09-07T05:38:16.381Z,70
2022-09-07T05:50:27.154Z,64
2022-09-07T05:56:10.338Z,64
2022-09-07T06:01:51.400Z,76
2022-09-07T06:07:31.755Z,64
2022-09-07T06:13:20.986Z,64
2022-09-07T06:19:01.358Z,72
2022-09-07T06:24:41.908Z,64
2022-09-07T06:30:22.263Z,66
2022-09-07T06:36:05.428Z,70
2022-09-07T06:42:01.162Z,76
2022-09-07T06:47:42.510Z,76
2022-09-07T06:53:47.964Z,72
2022-09-07T06:59:28.231Z,66
2022-09-07T07:05:08.319Z,60
2022-09-07T07:10:53.413Z,72
2022-09-07T07:22:50.567Z,70
2022-09-07T07:29:05.684Z,82
2022-09-07T07:40:40.118Z,72
2022-09-07T07:46:21.590Z,70
2022-09-07T07:53:47.479Z,76
2022-09-07T07:59:28.554Z,60
2022-09-07T08:05:09.858Z,16
2022-09-07T08:10:53.818Z,18
2022-09-07T08:16:34.883Z,24
2022-09-07T08:22:18.125Z,26
2022-09-07T08:27:58.699Z,24
2022-09-07T08:33:38.921Z,20
2022-09-07T08:39:21.704Z,26
2022-09-07T08:45:02.366Z,30
2022-09-07T08:50:42.981Z,20
2022-09-07T09:06:13.009Z,4
2022-09-07T09:11:54.597Z,0
2022-09-07T09:17:35.292Z,4
2022-09-07T09:28:56.364Z,12
2022-09-07T09:34:36.723Z,68
2022-09-07T09:40:17.203Z,70
2022-09-07T09:46:14.016Z,70
2022-09-07T09:52:51.027Z,72
2022-09-07T10:00:10.478Z,0
2022-09-07T10:06:00.160Z,16
2022-09-07T10:12:09.531Z,0
2022-09-07T10:17:50.829Z,80
2022-09-07T10:23:33.478Z,74
2022-09-07T10:29:17.271Z,76
2022-09-07T10:34:58.011Z,24
2022-09-07T10:40:37.836Z,72
2022-09-07T10:46:58.969Z,64
2022-09-07T10:52:39.803Z,76
2022-09-07T11:04:02.299Z,70
2022-09-07T11:09:43.779Z,0
2022-09-07T11:15:24.976Z,0
2022-09-07T11:21:05.585Z,0
2022-09-07T11:26:47.128Z,0
2022-09-07T11:32:27.464Z,0
2022-09-07T11:38:08.553Z,0
2022-09-07T11:43:50.817Z,4
2022-09-07T11:49:35.605Z,6
2022-09-07T11:55:16.383Z,26
2022-09-07T12:00:56.786Z,30
2022-09-07T12:06:38.267Z,38
2022-09-07T12:12:19.505Z,2
2022-09-07T12:18:00.265Z,0
2022-09-07T12:23:43.671Z,0
2022-09-07T12:29:23.925Z,0
2022-09-07T12:35:04.650Z,0
2022-09-07T12:40:46.534Z,0
2022-09-07T12:46:30.909Z,14
2022-09-07T12:52:16.686Z,0
2022-09-07T13:03:56.730Z,0
2022-09-07T13:09:46.831Z,2
2022-09-07T13:15:35.146Z,0
2022-09-07T13:21:15.976Z,0
2022-09-07T13:26:56.632Z,0
2022-09-07T13:33:16.299Z,0
2022-09-07T13:39:17.776Z,2
2022-09-07T13:44:59.146Z,4
2022-09-07T13:50:39.956Z,8
2022-09-07T13:56:20.876Z,0
2022-09-07T14:02:03.892Z,0
2022-09-07T14:07:48.211Z,82
2022-09-07T14:13:33.277Z,74
2022-09-07T14:19:17.274Z,46
2022-09-07T14:24:59.371Z,78
2022-09-07T14:36:47.823Z,76
2022-09-07T14:42:31.197Z,82
2022-09-07T14:48:12.964Z,80
2022-09-07T14:53:54.540Z,74
2022-09-07T14:59:36.390Z,72
2022-09-07T15:05:18.797Z,80
2022-09-07T15:11:38.479Z,80
2022-09-07T15:17:54.355Z,80
2022-09-07T15:23:37.269Z,72
2022-09-07T15:29:17.956Z,72
2022-09-07T15:34:58.944Z,62
2022-09-07T15:41:24.949Z,76
2022-09-07T15:47:53.873Z,80
2022-09-07T15:54:14.905Z,78
2022-09-07T15:59:55.279Z,80
2022-09-07T16:05:35.800Z,78
2022-09-07T16:11:24.453Z,78
2022-09-07T16:17:48.871Z,84
2022-09-07T16:23:34.522Z,88
2022-09-07T16:29:14.898Z,84
2022-09-07T16:34:54.993Z,80
2022-09-07T16:40:35.213Z,80
2022-09-07T16:46:19.427Z,70
2022-09-07T16:51:59.822Z,76
2022-09-07T16:58:40.376Z,78
2022-09-07T17:10:02.244Z,78
2022-09-07T17:15:42.531Z,74
2022-09-07T17:21:22.547Z,74
2022-09-07T17:27:02.765Z,78
2022-09-07T17:32:43.595Z,72
2022-09-07T17:39:26.807Z,72
2022-09-07T17:45:07.580Z,78
2022-09-07T17:50:47.821Z,76
2022-09-07T17:56:28.325Z,80
2022-09-07T18:02:09.178Z,72
2022-09-07T18:07:51.190Z,66
2022-09-07T18:13:38.712Z,80
2022-09-07T18:19:19.836Z,78
2022-09-07T18:30:40.549Z,76
2022-09-07T18:36:20.649Z,70
2022-09-07T18:42:01.102Z,68
2022-09-07T18:47:44.047Z,68
2022-09-07T18:53:29.528Z,78
2022-09-07T18:59:10.986Z,66
2022-09-07T19:05:53.493Z,76
2022-09-07T19:11:34.285Z,74
2022-09-07T19:17:14.249Z,74
2022-09-07T19:22:54.576Z,70
2022-09-07T19:28:37.318Z,82
2022-09-07T19:34:18.375Z,64
2022-09-07T19:39:59.182Z,80
2022-09-07T19:45:39.411Z,66
2022-09-07T19:51:19.888Z,64
2022-09-07T19:57:00.584Z,64
2022-09-07T20:02:41.032Z,78
2022-09-07T20:08:24.764Z,76
2022-09-07T20:25:28.747Z,70
2022-09-07T20:31:09.777Z,68
2022-09-07T20:36:50.070Z,70
2022-09-07T20:42:30.696Z,78
2022-09-07T20:48:11.320Z,74
2022-09-07T20:53:58.547Z,70
2022-09-07T20:59:43.047Z,72
2022-09-07T21:05:23.523Z,80
2022-09-07T21:11:15.317Z,70
2022-09-07T21:17:01.393Z,60
2022-09-07T21:22:42.193Z,66
2022-09-07T21:28:22.464Z,70
2022-09-07T21:34:03.000Z,74
2022-09-07T21:39:46.989Z,62
2022-09-07T21:45:28.661Z,70
2022-09-07T21:51:09.224Z,70
2022-09-07T21:56:49.715Z,68
2022-09-07T22:08:11.778Z,60
2022-09-07T22:13:52.322Z,72
2022-09-07T22:19:32.923Z,72
2022-09-07T22:25:13.234Z,70
2022-09-07T22:30:53.441Z,70
2022-09-07T22:36:33.881Z,76
2022-09-07T22:42:14.958Z,62
2022-09-07T22:48:06.147Z,62
2022-09-07T22:53:54.061Z,78
2022-09-07T22:59:35.587Z,64
2022-09-07T23:05:16.072Z,64
2022-09-07T23:10:56.383Z,66
2022-09-07T23:16:37.444Z,64
2022-09-07T23:22:18.111Z,62
2022-09-07T23:27:58.312Z,78
2022-09-07T23:33:38.420Z,74
2022-09-07T23:44:58.569Z,66
2022-09-07T23:50:39.666Z,72
2022-09-07T23:56:20.331Z,72
